sensor_id;sensor_type;location;lat;lon;timestamp;pressure;altitude;pressure_sealevel;temperature;humidity
13420;BME280;6781;58.440;15.470;2024-02-28T00:02:05;102856.91;;;1.78;100.00
13420;BME280;6781;58.440;15.470;2024-02-28T00:04:31;102863.66;;;1.88;100.00
13420;BME280;6781;58.440;15.470;2024-02-28T00:06:58;102877.25;;;1.96;100.00
13420;BME280;6781;58.440;15.470;2024-02-28T00:09:25;102878.94;;;2.01;100.00
13420;BME280;6781;58.440;15.470;2024-02-28T00:11:52;102884.06;;;1.98;100.00
13420;BME280;6781;58.440;15.470;2024-02-28T00:14:18;102885.75;;;2.02;100.00
13420;BME280;6781;58.440;15.470;2024-02-28T00:16:45;102873.84;;;1.98;100.00
13420;BME280;6781;58.440;15.470;2024-02-28T00:19:14;102888.34;;;1.99;100.00
13420;BME280;6781;58.440;15.470;2024-02-28T00:21:42;102893.44;;;2.03;100.00
13420;BME280;6781;58.440;15.470;2024-02-28T00:24:09;102894.28;;;2.02;100.00
13420;BME280;6781;58.440;15.470;2024-02-28T00:26:37;102884.94;;;1.95;100.00
13420;BME280;6781;58.440;15.470;2024-02-28T00:29:04;102873.06;;;1.86;100.00
13420;BME280;6781;58.440;15.470;2024-02-28T00:31:30;102879.84;;;1.90;100.00
13420;BME280;6781;58.440;15.470;2024-02-28T00:33:57;102881.56;;;1.90;100.00
13420;BME280;6781;58.440;15.470;2024-02-28T00:36:25;102889.19;;;1.98;100.00
13420;BME280;6781;58.440;15.470;2024-02-28T00:38:52;102894.34;;;1.94;100.00
13420;BME280;6781;58.440;15.470;2024-02-28T00:41:19;102897.75;;;1.95;100.00
13420;BME280;6781;58.440;15.470;2024-02-28T00:43:46;102901.13;;;1.99;100.00
13420;BME280;6781;58.440;15.470;2024-02-28T00:46:13;102895.19;;;1.92;100.00
13420;BME280;6781;58.440;15.470;2024-02-28T00:48:40;102907.13;;;1.96;100.00
13420;BME280;6781;58.440;15.470;2024-02-28T00:51:06;102899.44;;;1.94;100.00
13420;BME280;6781;58.440;15.470;2024-02-28T00:53:35;102908.84;;;1.92;100.00
13420;BME280;6781;58.440;15.470;2024-02-28T00:56:02;102890.16;;;1.75;100.00
13420;BME280;6781;58.440;15.470;2024-02-28T00:58:29;102911.44;;;1.83;100.00
13420;BME280;6781;58.440;15.470;2024-02-28T01:00:56;102913.16;;;1.84;100.00
13420;BME280;6781;58.440;15.470;2024-02-28T01:03:23;102911.47;;;1.80;100.00
13420;BME280;6781;58.440;15.470;2024-02-28T01:05:49;102912.31;;;1.81;100.00
13420;BME280;6781;58.440;15.470;2024-02-28T01:08:16;102906.34;;;1.77;100.00
13420;BME280;6781;58.440;15.470;2024-02-28T01:10:45;102913.19;;;1.78;100.00
13420;BME280;6781;58.440;15.470;2024-02-28T01:13:12;102919.13;;;1.83;100.00
13420;BME280;6781;58.440;15.470;2024-02-28T01:15:39;102923.38;;;1.84;100.00
13420;BME280;6781;58.440;15.470;2024-02-28T01:18:06;102909.75;;;1.82;100.00
13420;BME280;6781;58.440;15.470;2024-02-28T01:20:33;102900.41;;;1.74;100.00
13420;BME280;6781;58.440;15.470;2024-02-28T01:23:00;102897.91;;;1.69;100.00
13420;BME280;6781;58.440;15.470;2024-02-28T01:25:27;102893.66;;;1.67;100.00
13420;BME280;6781;58.440;15.470;2024-02-28T01:27:55;102902.16;;;1.70;100.00
13420;BME280;6781;58.440;15.470;2024-02-28T01:30:23;102903.88;;;1.71;100.00
13420;BME280;6781;58.440;15.470;2024-02-28T01:32:49;102897.88;;;1.72;100.00
13420;BME280;6781;58.440;15.470;2024-02-28T01:35:16;102890.22;;;1.69;100.00
13420;BME280;6781;58.440;15.470;2024-02-28T01:37:43;102889.38;;;1.72;100.00
13420;BME280;6781;58.440;15.470;2024-02-28T01:40:10;102882.56;;;1.69;100.00
13420;BME280;6781;58.440;15.470;2024-02-28T01:42:37;102882.53;;;1.72;100.00
13420;BME280;6781;58.440;15.470;2024-02-28T01:45:06;102881.69;;;1.72;100.00
13420;BME280;6781;58.440;15.470;2024-02-28T01:47:34;102879.09;;;1.75;100.00
13420;BME280;6781;58.440;15.470;2024-02-28T01:50:01;102877.38;;;1.75;100.00
13420;BME280;6781;58.440;15.470;2024-02-28T01:52:28;102872.31;;;1.72;100.00
13420;BME280;6781;58.440;15.470;2024-02-28T01:54:55;102862.94;;;1.71;100.00
13420;BME280;6781;58.440;15.470;2024-02-28T01:57:22;102865.50;;;1.71;100.00
13420;BME280;6781;58.440;15.470;2024-02-28T01:59:49;102860.41;;;1.65;100.00
13420;BME280;6781;58.440;15.470;2024-02-28T02:02:17;102851.03;;;1.66;100.00
13420;BME280;6781;58.440;15.470;2024-02-28T02:04:44;102844.22;;;1.63;100.00
13420;BME280;6781;58.440;15.470;2024-02-28T02:07:11;102843.38;;;1.64;100.00
13420;BME280;6781;58.440;15.470;2024-02-28T02:09:38;102831.41;;;1.66;100.00
13420;BME280;6781;58.440;15.470;2024-02-28T02:12:06;102825.47;;;1.66;100.00
13420;BME280;6781;58.440;15.470;2024-02-28T02:14:33;102822.88;;;1.70;100.00
13420;BME280;6781;58.440;15.470;2024-02-28T02:16:59;102812.66;;;1.70;100.00
13420;BME280;6781;58.440;15.470;2024-02-28T02:19:28;102804.16;;;1.62;100.00
13420;BME280;6781;58.440;15.470;2024-02-28T02:21:57;102795.63;;;1.66;100.00
13420;BME280;6781;58.440;15.470;2024-02-28T02:24:25;102778.59;;;1.65;100.00
13420;BME280;6781;58.440;15.470;2024-02-28T02:26:54;102775.19;;;1.63;100.00
13420;BME280;6781;58.440;15.470;2024-02-28T02:29:21;102771.75;;;1.64;100.00
13420;BME280;6781;58.440;15.470;2024-02-28T02:31:48;102770.91;;;1.65;100.00
13420;BME280;6781;58.440;15.470;2024-02-28T02:34:15;102773.47;;;1.65;100.00
13420;BME280;6781;58.440;15.470;2024-02-28T02:36:41;102766.66;;;1.64;100.00
13420;BME280;6781;58.440;15.470;2024-02-28T02:39:08;102761.56;;;1.61;100.00
13420;BME280;6781;58.440;15.470;2024-02-28T02:41:37;102761.53;;;1.64;100.00
13420;BME280;6781;58.440;15.470;2024-02-28T02:44:03;102761.53;;;1.64;100.00
13420;BME280;6781;58.440;15.470;2024-02-28T02:46:30;102758.13;;;1.62;100.00
13420;BME280;6781;58.440;15.470;2024-02-28T02:48:57;102753.03;;;1.62;100.00
13420;BME280;6781;58.440;15.470;2024-02-28T02:51:23;102743.66;;;1.59;100.00
13420;BME280;6781;58.440;15.470;2024-02-28T02:53:50;102739.38;;;1.61;100.00
13420;BME280;6781;58.440;15.470;2024-02-28T02:56:19;102744.53;;;1.57;100.00
13420;BME280;6781;58.440;15.470;2024-02-28T02:58:48;102736.84;;;1.58;100.00
13420;BME280;6781;58.440;15.470;2024-02-28T03:01:15;102734.28;;;1.60;100.00
13420;BME280;6781;58.440;15.470;2024-02-28T03:04:05;102730.03;;;1.57;100.00
13420;BME280;6781;58.440;15.470;2024-02-28T03:06:32;102723.22;;;1.56;100.00
13420;BME280;6781;58.440;15.470;2024-02-28T03:08:59;102728.34;;;1.55;100.00
13420;BME280;6781;58.440;15.470;2024-02-28T03:11:25;102723.22;;;1.58;100.00
13420;BME280;6781;58.440;15.470;2024-02-28T03:13:54;102722.38;;;1.57;100.00
13420;BME280;6781;58.440;15.470;2024-02-28T03:16:20;102719.81;;;1.59;100.00
13420;BME280;6781;58.440;15.470;2024-02-28T03:18:47;102718.09;;;1.61;100.00
13420;BME280;6781;58.440;15.470;2024-02-28T03:21:14;102711.28;;;1.60;100.00
13420;BME280;6781;58.440;15.470;2024-02-28T03:23:42;102708.72;;;1.60;100.00
13420;BME280;6781;58.440;15.470;2024-02-28T03:26:08;102697.69;;;1.55;100.00
13420;BME280;6781;58.440;15.470;2024-02-28T03:28:35;102694.25;;;1.56;100.00
13420;BME280;6781;58.440;15.470;2024-02-28T03:31:04;102688.28;;;1.55;100.00
13420;BME280;6781;58.440;15.470;2024-02-28T03:33:30;102686.56;;;1.59;100.00
13420;BME280;6781;58.440;15.470;2024-02-28T03:35:58;102684.88;;;1.58;100.00
13420;BME280;6781;58.440;15.470;2024-02-28T03:38:24;102688.28;;;1.57;100.00
13420;BME280;6781;58.440;15.470;2024-02-28T03:40:51;102680.63;;;1.55;100.00
13420;BME280;6781;58.440;15.470;2024-02-28T03:43:18;102683.16;;;1.57;100.00
13420;BME280;6781;58.440;15.470;2024-02-28T03:45:44;102670.38;;;1.57;100.00
13420;BME280;6781;58.440;15.470;2024-02-28T03:48:13;102684.88;;;1.58;100.00
13420;BME280;6781;58.440;15.470;2024-02-28T03:50:39;102672.09;;;1.56;100.00
13420;BME280;6781;58.440;15.470;2024-02-28T03:53:06;102669.59;;;1.49;100.00
13420;BME280;6781;58.440;15.470;2024-02-28T03:55:33;102655.13;;;1.48;100.00
13420;BME280;6781;58.440;15.470;2024-02-28T03:58:00;102654.28;;;1.46;100.00
13420;BME280;6781;58.440;15.470;2024-02-28T04:00:26;102645.72;;;1.50;100.00
13420;BME280;6781;58.440;15.470;2024-02-28T04:02:53;102631.28;;;1.43;100.00
13420;BME280;6781;58.440;15.470;2024-02-28T04:05:21;102630.38;;;1.50;100.00
13420;BME280;6781;58.440;15.470;2024-02-28T04:07:48;102628.72;;;1.46;100.00
13420;BME280;6781;58.440;15.470;2024-02-28T04:10:15;102625.28;;;1.50;100.00
13420;BME280;6781;58.440;15.470;2024-02-28T04:12:42;102620.19;;;1.47;100.00
13420;BME280;6781;58.440;15.470;2024-02-28T04:15:10;102609.16;;;1.42;100.00
13420;BME280;6781;58.440;15.470;2024-02-28T04:17:36;102614.22;;;1.46;100.00
13420;BME280;6781;58.440;15.470;2024-02-28T04:20:03;102610.00;;;1.44;100.00
13420;BME280;6781;58.440;15.470;2024-02-28T04:22:36;102608.25;;;1.47;100.00
13420;BME280;6781;58.440;15.470;2024-02-28T04:25:03;102608.28;;;1.43;100.00
13420;BME280;6781;58.440;15.470;2024-02-28T04:27:30;102610.00;;;1.44;100.00
13420;BME280;6781;58.440;15.470;2024-02-28T04:29:57;102611.69;;;1.45;100.00
13420;BME280;6781;58.440;15.470;2024-02-28T04:32:23;102612.53;;;1.45;100.00
13420;BME280;6781;58.440;15.470;2024-02-28T04:34:50;102605.75;;;1.41;100.00
13420;BME280;6781;58.440;15.470;2024-02-28T04:37:17;102613.44;;;1.40;100.00
13420;BME280;6781;58.440;15.470;2024-02-28T04:39:45;102610.00;;;1.41;100.00
13420;BME280;6781;58.440;15.470;2024-02-28T04:42:12;102621.09;;;1.40;100.00
13420;BME280;6781;58.440;15.470;2024-02-28T04:44:39;102626.25;;;1.35;100.00
13420;BME280;6781;58.440;15.470;2024-02-28T04:47:06;102623.69;;;1.37;100.00
13420;BME280;6781;58.440;15.470;2024-02-28T04:49:36;102633.06;;;1.36;100.00
13420;BME280;6781;58.440;15.470;2024-02-28T04:52:02;102645.06;;;1.25;100.00
13420;BME280;6781;58.440;15.470;2024-02-28T04:54:29;102660.34;;;1.29;100.00
13420;BME280;6781;58.440;15.470;2024-02-28T04:56:57;102664.63;;;1.30;100.00
13420;BME280;6781;58.440;15.470;2024-02-28T04:59:24;102656.16;;;1.22;100.00
13420;BME280;6781;58.440;15.470;2024-02-28T05:01:51;102669.75;;;1.24;100.00
13420;BME280;6781;58.440;15.470;2024-02-28T05:04:18;102675.75;;;1.22;100.00
13420;BME280;6781;58.440;15.470;2024-02-28T05:06:45;102687.69;;;1.18;100.00
13420;BME280;6781;58.440;15.470;2024-02-28T05:09:12;102697.91;;;1.17;100.00
13420;BME280;6781;58.440;15.470;2024-02-28T05:11:38;102697.91;;;1.17;100.00
13420;BME280;6781;58.440;15.470;2024-02-28T05:14:08;102686.91;;;1.07;100.00
13420;BME280;6781;58.440;15.470;2024-02-28T05:16:36;102679.25;;;1.04;100.00
13420;BME280;6781;58.440;15.470;2024-02-28T05:19:03;102676.66;;;1.12;100.00
13420;BME280;6781;58.440;15.470;2024-02-28T05:21:30;102663.09;;;1.02;100.00
13420;BME280;6781;58.440;15.470;2024-02-28T05:23:56;102667.31;;;1.08;100.00
13420;BME280;6781;58.440;15.470;2024-02-28T05:26:23;102654.56;;;1.03;100.00
13420;BME280;6781;58.440;15.470;2024-02-28T05:28:50;102646.00;;;1.10;100.00
13420;BME280;6781;58.440;15.470;2024-02-28T05:31:23;102633.31;;;1.00;100.00
13420;BME280;6781;58.440;15.470;2024-02-28T05:33:50;102629.88;;;1.02;100.00
13420;BME280;6781;58.440;15.470;2024-02-28T05:36:19;102631.59;;;1.02;100.00
13420;BME280;6781;58.440;15.470;2024-02-28T05:38:46;102624.78;;;0.99;100.00
13420;BME280;6781;58.440;15.470;2024-02-28T05:41:12;102622.22;;;1.02;100.00
13420;BME280;6781;58.440;15.470;2024-02-28T05:43:40;102612.84;;;1.01;100.00
13420;BME280;6781;58.440;15.470;2024-02-28T05:46:07;102606.06;;;1.00;100.00
13420;BME280;6781;58.440;15.470;2024-02-28T05:48:35;102606.06;;;0.98;100.00
13420;BME280;6781;58.440;15.470;2024-02-28T05:51:02;102611.13;;;1.03;100.00
13420;BME280;6781;58.440;15.470;2024-02-28T05:53:29;102608.53;;;1.12;100.00
13420;BME280;6781;58.440;15.470;2024-02-28T05:55:57;102586.47;;;0.99;100.00
13420;BME280;6781;58.440;15.470;2024-02-28T05:58:25;102594.94;;;1.07;100.00
13420;BME280;6781;58.440;15.470;2024-02-28T06:00:51;102588.16;;;1.00;100.00
13420;BME280;6781;58.440;15.470;2024-02-28T06:03:18;102588.13;;;1.06;100.00
13420;BME280;6781;58.440;15.470;2024-02-28T06:05:46;102593.16;;;1.15;100.00
13420;BME280;6781;58.440;15.470;2024-02-28T06:08:13;102596.56;;;1.17;100.00
13420;BME280;6781;58.440;15.470;2024-02-28T06:10:40;102604.19;;;1.23;100.00
13420;BME280;6781;58.440;15.470;2024-02-28T06:13:08;102598.22;;;1.23;100.00
13420;BME280;6781;58.440;15.470;2024-02-28T06:15:35;102589.75;;;1.16;100.00
13420;BME280;6781;58.440;15.470;2024-02-28T06:18:02;102588.00;;;1.21;100.00
13420;BME280;6781;58.440;15.470;2024-02-28T06:20:36;102583.78;;;1.17;100.00
13420;BME280;6781;58.440;15.470;2024-02-28T06:23:05;102574.44;;;1.13;100.00
13420;BME280;6781;58.440;15.470;2024-02-28T06:25:32;102571.00;;;1.17;100.00
13420;BME280;6781;58.440;15.470;2024-02-28T06:27:59;102565.94;;;1.14;100.00
13420;BME280;6781;58.440;15.470;2024-02-28T06:30:27;102568.47;;;1.17;100.00
13420;BME280;6781;58.440;15.470;2024-02-28T06:32:53;102549.78;;;1.08;100.00
13420;BME280;6781;58.440;15.470;2024-02-28T06:35:20;102544.66;;;1.11;100.00
13420;BME280;6781;58.440;15.470;2024-02-28T06:37:47;102546.28;;;1.21;100.00
13420;BME280;6781;58.440;15.470;2024-02-28T06:40:17;102543.75;;;1.18;100.00
13420;BME280;6781;58.440;15.470;2024-02-28T06:42:43;102544.59;;;1.20;100.00
13420;BME280;6781;58.440;15.470;2024-02-28T06:45:10;102538.63;;;1.18;100.00
13420;BME280;6781;58.440;15.470;2024-02-28T06:47:37;102540.31;;;1.20;100.00
13420;BME280;6781;58.440;15.470;2024-02-28T06:50:05;102545.34;;;1.29;100.00
13420;BME280;6781;58.440;15.470;2024-02-28T06:52:33;102541.97;;;1.27;100.00
13420;BME280;6781;58.440;15.470;2024-02-28T06:55:00;102533.44;;;1.28;100.00
13420;BME280;6781;58.440;15.470;2024-02-28T06:57:32;102523.25;;;1.25;100.00
13420;BME280;6781;58.440;15.470;2024-02-28T06:59:59;102516.44;;;1.23;100.00
13420;BME280;6781;58.440;15.470;2024-02-28T07:02:26;102526.69;;;1.21;100.00
13420;BME280;6781;58.440;15.470;2024-02-28T07:04:53;102514.75;;;1.23;100.00
13420;BME280;6781;58.440;15.470;2024-02-28T07:07:19;102514.75;;;1.23;100.00
13420;BME280;6781;58.440;15.470;2024-02-28T07:09:46;102504.56;;;1.20;100.00
13420;BME280;6781;58.440;15.470;2024-02-28T07:12:13;102514.72;;;1.26;100.00
13420;BME280;6781;58.440;15.470;2024-02-28T07:14:42;102507.94;;;1.22;100.00
13420;BME280;6781;58.440;15.470;2024-02-28T07:17:08;102511.31;;;1.24;100.00
13420;BME280;6781;58.440;15.470;2024-02-28T07:19:36;102521.50;;;1.29;100.00
13420;BME280;6781;58.440;15.470;2024-02-28T07:22:03;102532.56;;;1.33;100.00
13420;BME280;6781;58.440;15.470;2024-02-28T07:24:30;102537.63;;;1.37;100.00
13420;BME280;6781;58.440;15.470;2024-02-28T07:26:57;102541.84;;;1.43;100.00
13420;BME280;6781;58.440;15.470;2024-02-28T07:29:24;102520.53;;;1.42;100.00
13420;BME280;6781;58.440;15.470;2024-02-28T07:31:52;102526.44;;;1.49;100.00
13420;BME280;6781;58.440;15.470;2024-02-28T07:34:19;102519.69;;;1.42;100.00
13420;BME280;6781;58.440;15.470;2024-02-28T07:36:46;102525.50;;;1.56;100.00
13420;BME280;6781;58.440;15.470;2024-02-28T07:39:12;102516.13;;;1.58;100.00
13420;BME280;6781;58.440;15.470;2024-02-28T07:41:39;102521.16;;;1.64;100.00
13420;BME280;6781;58.440;15.470;2024-02-28T07:44:06;102510.91;;;1.67;100.00
13420;BME280;6781;58.440;15.470;2024-02-28T07:46:33;102519.31;;;1.75;100.00
13420;BME280;6781;58.440;15.470;2024-02-28T07:49:02;102500.66;;;1.70;100.00
13420;BME280;6781;58.440;15.470;2024-02-28T07:51:29;102498.78;;;1.81;100.00
13420;BME280;6781;58.440;15.470;2024-02-28T07:53:55;102491.91;;;1.86;100.00
13420;BME280;6781;58.440;15.470;2024-02-28T07:56:22;102482.72;;;1.73;100.00
13420;BME280;6781;58.440;15.470;2024-02-28T07:58:49;102461.47;;;1.68;100.00
13420;BME280;6781;58.440;15.470;2024-02-28T08:01:16;102447.81;;;1.69;100.00
13420;BME280;6781;58.440;15.470;2024-02-28T08:03:42;102427.38;;;1.66;100.00
13420;BME280;6781;58.440;15.470;2024-02-28T08:06:11;102437.47;;;1.75;100.00
13420;BME280;6781;58.440;15.470;2024-02-28T08:08:38;102420.41;;;1.77;100.00
13420;BME280;6781;58.440;15.470;2024-02-28T08:11:05;102405.16;;;1.71;100.00
13420;BME280;6781;58.440;15.470;2024-02-28T08:13:31;102399.09;;;1.77;100.00
13420;BME280;6781;58.440;15.470;2024-02-28T08:15:58;102393.28;;;1.67;100.00
13420;BME280;6781;58.440;15.470;2024-02-28T08:18:25;102387.19;;;1.74;100.00
13420;BME280;6781;58.440;15.470;2024-02-28T08:20:53;102384.56;;;1.80;100.00
13420;BME280;6781;58.440;15.470;2024-02-28T08:23:24;102364.09;;;1.80;100.00
13420;BME280;6781;58.440;15.470;2024-02-28T08:25:51;102353.91;;;1.76;100.00
13420;BME280;6781;58.440;15.470;2024-02-28T08:28:18;102350.47;;;1.78;100.00
13420;BME280;6781;58.440;15.470;2024-02-28T08:30:45;102347.00;;;1.82;100.00
13420;BME280;6781;58.440;15.470;2024-02-28T08:33:12;102331.63;;;1.84;100.00
13420;BME280;6781;58.440;15.470;2024-02-28T08:35:38;102321.31;;;1.91;100.00
13420;BME280;6781;58.440;15.470;2024-02-28T08:38:05;102317.81;;;1.95;100.00
13420;BME280;6781;58.440;15.470;2024-02-28T08:40:33;102309.25;;;2.00;100.00
13420;BME280;6781;58.440;15.470;2024-02-28T08:43:00;102296.47;;;1.98;100.00
13420;BME280;6781;58.440;15.470;2024-02-28T08:45:27;102290.34;;;2.08;100.00
13420;BME280;6781;58.440;15.470;2024-02-28T08:47:54;102265.69;;;2.03;100.00
13420;BME280;6781;58.440;15.470;2024-02-28T08:50:22;102255.28;;;2.13;100.00
13420;BME280;6781;58.440;15.470;2024-02-28T08:52:49;102255.25;;;2.15;100.00
13420;BME280;6781;58.440;15.470;2024-02-28T08:55:16;102241.47;;;2.22;100.00
13420;BME280;6781;58.440;15.470;2024-02-28T08:57:46;102222.63;;;2.27;100.00
13420;BME280;6781;58.440;15.470;2024-02-28T09:00:13;102206.34;;;2.30;100.00
13420;BME280;6781;58.440;15.470;2024-02-28T09:02:40;102183.25;;;2.33;100.00
13420;BME280;6781;58.440;15.470;2024-02-28T09:05:07;102170.34;;;2.39;100.00
13420;BME280;6781;58.440;15.470;2024-02-28T09:07:35;102158.47;;;2.35;100.00
13420;BME280;6781;58.440;15.470;2024-02-28T09:10:03;102129.44;;;2.36;100.00
13420;BME280;6781;58.440;15.470;2024-02-28T09:12:30;102117.59;;;2.32;100.00
13420;BME280;6781;58.440;15.470;2024-02-28T09:14:59;102104.72;;;2.35;100.00
13420;BME280;6781;58.440;15.470;2024-02-28T09:17:25;102089.34;;;2.37;100.00
13420;BME280;6781;58.440;15.470;2024-02-28T09:19:52;102084.97;;;2.42;100.00
13420;BME280;6781;58.440;15.470;2024-02-28T09:22:19;102077.81;;;2.57;100.00
13420;BME280;6781;58.440;15.470;2024-02-28T09:24:46;102059.78;;;2.62;100.00
13420;BME280;6781;58.440;15.470;2024-02-28T09:27:13;102057.13;;;2.67;100.00
13420;BME280;6781;58.440;15.470;2024-02-28T09:29:40;102035.75;;;2.68;100.00
13420;BME280;6781;58.440;15.470;2024-02-28T09:32:09;102017.75;;;2.71;100.00
13420;BME280;6781;58.440;15.470;2024-02-28T09:34:37;102009.19;;;2.72;100.00
13420;BME280;6781;58.440;15.470;2024-02-28T09:37:03;101998.88;;;2.75;100.00
13420;BME280;6781;58.440;15.470;2024-02-28T09:39:30;102000.34;;;2.85;100.00
13420;BME280;6781;58.440;15.470;2024-02-28T09:41:57;101993.16;;;2.99;100.00
13420;BME280;6781;58.440;15.470;2024-02-28T09:44:24;101992.63;;;3.20;100.00
13420;BME280;6781;58.440;15.470;2024-02-28T09:46:54;101964.28;;;3.26;100.00
13420;BME280;6781;58.440;15.470;2024-02-28T09:49:22;101939.59;;;3.22;100.00
13420;BME280;6781;58.440;15.470;2024-02-28T09:51:51;101914.84;;;3.21;100.00
13420;BME280;6781;58.440;15.470;2024-02-28T09:54:18;101898.41;;;3.29;100.00
13420;BME280;6781;58.440;15.470;2024-02-28T09:56:46;101868.50;;;3.29;100.00
13420;BME280;6781;58.440;15.470;2024-02-28T09:59:13;101861.38;;;3.39;100.00
13420;BME280;6781;58.440;15.470;2024-02-28T10:01:42;101838.13;;;3.45;100.00
13420;BME280;6781;58.440;15.470;2024-02-28T10:04:09;101842.16;;;3.52;100.00
13420;BME280;6781;58.440;15.470;2024-02-28T10:06:39;101814.53;;;3.62;100.00
13420;BME280;6781;58.440;15.470;2024-02-28T10:09:06;101816.56;;;3.78;100.00
13420;BME280;6781;58.440;15.470;2024-02-28T10:11:35;101836.44;;;4.00;100.00
13420;BME280;6781;58.440;15.470;2024-02-28T10:14:02;101815.41;;;4.15;100.00
13420;BME280;6781;58.440;15.470;2024-02-28T10:16:29;101800.31;;;4.32;100.00
13420;BME280;6781;58.440;15.470;2024-02-28T10:18:56;101768.50;;;4.36;100.00
13420;BME280;6781;58.440;15.470;2024-02-28T10:21:22;101730.38;;;4.24;100.00
13420;BME280;6781;58.440;15.470;2024-02-28T10:23:52;101703.72;;;4.28;100.00
13420;BME280;6781;58.440;15.470;2024-02-28T10:26:19;101691.13;;;4.45;100.00
13420;BME280;6781;58.440;15.470;2024-02-28T10:28:46;101678.84;;;4.53;100.00
13420;BME280;6781;58.440;15.470;2024-02-28T10:31:14;101661.31;;;4.65;100.00
13420;BME280;6781;58.440;15.470;2024-02-28T10:33:41;101648.19;;;4.72;100.00
13420;BME280;6781;58.440;15.470;2024-02-28T10:36:08;101651.69;;;4.93;100.00
13420;BME280;6781;58.440;15.470;2024-02-28T10:38:35;101626.41;;;5.04;100.00
13420;BME280;6781;58.440;15.470;2024-02-28T10:41:05;101596.31;;;5.06;100.00
13420;BME280;6781;58.440;15.470;2024-02-28T10:43:33;101577.97;;;5.15;100.00
13420;BME280;6781;58.440;15.470;2024-02-28T10:46:01;101529.59;;;5.03;100.00
13420;BME280;6781;58.440;15.470;2024-02-28T10:48:28;101504.03;;;5.00;100.00
13420;BME280;6781;58.440;15.470;2024-02-28T10:50:55;101484.34;;;4.99;100.00
13420;BME280;6781;58.440;15.470;2024-02-28T10:53:22;101462.38;;;4.92;100.00
13420;BME280;6781;58.440;15.470;2024-02-28T10:55:50;101453.31;;;5.04;100.00
13420;BME280;6781;58.440;15.470;2024-02-28T10:58:19;101450.19;;;5.17;100.00
13420;BME280;6781;58.440;15.470;2024-02-28T11:00:49;101421.00;;;5.18;100.00
13420;BME280;6781;58.440;15.470;2024-02-28T11:03:17;101407.91;;;5.23;100.00
13420;BME280;6781;58.440;15.470;2024-02-28T11:05:44;101389.84;;;5.24;100.00
13420;BME280;6781;58.440;15.470;2024-02-28T11:08:19;101354.75;;;5.23;100.00
13420;BME280;6781;58.440;15.470;2024-02-28T11:10:47;101346.13;;;5.24;100.00
13420;BME280;6781;58.440;15.470;2024-02-28T11:13:22;101326.88;;;5.33;100.00
13420;BME280;6781;58.440;15.470;2024-02-28T11:15:49;101317.44;;;5.34;100.00
13420;BME280;6781;58.440;15.470;2024-02-28T11:18:16;101289.47;;;5.26;100.00
13420;BME280;6781;58.440;15.470;2024-02-28T11:20:43;101269.47;;;5.33;100.00
13420;BME280;6781;58.440;15.470;2024-02-28T11:23:11;101263.91;;;5.42;100.00
13420;BME280;6781;58.440;15.470;2024-02-28T11:25:39;101272.09;;;5.50;100.00
13420;BME280;6781;58.440;15.470;2024-02-28T11:28:06;101255.28;;;5.43;100.00
13420;BME280;6781;58.440;15.470;2024-02-28T11:30:34;101257.31;;;5.36;100.00
13420;BME280;6781;58.440;15.470;2024-02-28T11:33:01;101255.41;;;5.40;100.00
13420;BME280;6781;58.440;15.470;2024-02-28T11:35:28;101240.69;;;5.43;100.00
13420;BME280;6781;58.440;15.470;2024-02-28T11:37:56;101239.69;;;5.46;100.00
13420;BME280;6781;58.440;15.470;2024-02-28T11:40:23;101228.66;;;5.44;100.00
13420;BME280;6781;58.440;15.470;2024-02-28T11:42:51;101214.88;;;5.45;100.00
13420;BME280;6781;58.440;15.470;2024-02-28T11:45:18;101209.28;;;5.37;100.00
13420;BME280;6781;58.440;15.470;2024-02-28T11:47:47;101218.03;;;5.33;100.00
13420;BME280;6781;58.440;15.470;2024-02-28T11:50:14;101223.56;;;5.42;100.00
13420;BME280;6781;58.440;15.470;2024-02-28T11:52:43;101205.47;;;5.27;100.00
13420;BME280;6781;58.440;15.470;2024-02-28T11:55:10;101197.75;;;5.27;100.00
13420;BME280;6781;58.440;15.470;2024-02-28T11:57:37;101207.75;;;5.33;100.00
13420;BME280;6781;58.440;15.470;2024-02-28T12:00:04;101223.72;;;5.39;100.00
13420;BME280;6781;58.440;15.470;2024-02-28T12:02:31;101217.41;;;5.28;100.00
13420;BME280;6781;58.440;15.470;2024-02-28T12:05:01;101213.72;;;5.33;100.00
13420;BME280;6781;58.440;15.470;2024-02-28T12:07:29;101214.97;;;5.24;100.00
13420;BME280;6781;58.440;15.470;2024-02-28T12:09:56;101216.66;;;5.26;100.00
13420;BME280;6781;58.440;15.470;2024-02-28T12:12:22;101218.47;;;5.23;100.00
13420;BME280;6781;58.440;15.470;2024-02-28T12:14:50;101237.44;;;5.21;100.00
13420;BME280;6781;58.440;15.470;2024-02-28T12:17:17;101233.44;;;5.15;100.00
13420;BME280;6781;58.440;15.470;2024-02-28T12:19:44;101232.81;;;5.10;100.00
13420;BME280;6781;58.440;15.470;2024-02-28T12:22:12;101245.53;;;5.13;100.00
13420;BME280;6781;58.440;15.470;2024-02-28T12:24:39;101239.22;;;5.02;100.00
13420;BME280;6781;58.440;15.470;2024-02-28T12:27:06;101253.25;;;4.95;100.00
13420;BME280;6781;58.440;15.470;2024-02-28T12:29:32;101275.59;;;4.93;100.00
13420;BME280;6781;58.440;15.470;2024-02-28T12:31:59;101292.69;;;4.94;100.00
13420;BME280;6781;58.440;15.470;2024-02-28T12:34:26;101300.47;;;4.92;100.00
13420;BME280;6781;58.440;15.470;2024-02-28T12:36:53;101334.50;;;4.97;100.00
13420;BME280;6781;58.440;15.470;2024-02-28T12:39:22;101334.78;;;4.91;100.00
13420;BME280;6781;58.440;15.470;2024-02-28T12:41:49;101345.06;;;4.91;100.00
13420;BME280;6781;58.440;15.470;2024-02-28T12:44:16;101357.28;;;4.86;100.00
13420;BME280;6781;58.440;15.470;2024-02-28T12:46:43;101378.28;;;4.96;100.00
13420;BME280;6781;58.440;15.470;2024-02-28T12:49:10;101372.81;;;4.83;100.00
13420;BME280;6781;58.440;15.470;2024-02-28T12:51:37;101377.84;;;4.86;100.00